sensor_id;sensor_type;location;lat;lon;timestamp;temperature;humidity
54202;DHT22;40108;53.152;5.844;2024-03-02T00:01:42;8.10;79.60
54202;DHT22;40108;53.152;5.844;2024-03-02T00:04:08;8.00;79.80
54202;DHT22;40108;53.152;5.844;2024-03-02T00:06:34;8.00;79.90
54202;DHT22;40108;53.152;5.844;2024-03-02T00:09:00;7.90;80.10
54202;DHT22;40108;53.152;5.844;2024-03-02T00:11:26;7.80;79.90
54202;DHT22;40108;53.152;5.844;2024-03-02T00:13:53;7.90;79.90
54202;DHT22;40108;53.152;5.844;2024-03-02T00:16:19;7.90;80.20
54202;DHT22;40108;53.152;5.844;2024-03-02T00:18:45;7.90;80.10
54202;DHT22;40108;53.152;5.844;2024-03-02T00:21:11;7.90;80.10
54202;DHT22;40108;53.152;5.844;2024-03-02T00:23:38;7.90;80.30
54202;DHT22;40108;53.152;5.844;2024-03-02T00:26:05;7.90;80.70
54202;DHT22;40108;53.152;5.844;2024-03-02T00:28:36;7.80;81.10
54202;DHT22;40108;53.152;5.844;2024-03-02T00:31:09;7.80;81.50
54202;DHT22;40108;53.152;5.844;2024-03-02T00:33:44;7.80;81.50
54202;DHT22;40108;53.152;5.844;2024-03-02T00:36:10;7.70;81.80
54202;DHT22;40108;53.152;5.844;2024-03-02T00:38:47;7.70;82.10
54202;DHT22;40108;53.152;5.844;2024-03-02T00:41:24;7.70;82.30
54202;DHT22;40108;53.152;5.844;2024-03-02T00:46:19;7.70;82.90
54202;DHT22;40108;53.152;5.844;2024-03-02T00:48:52;7.70;83.10
54202;DHT22;40108;53.152;5.844;2024-03-02T00:51:23;7.70;83.30
54202;DHT22;40108;53.152;5.844;2024-03-02T00:53:50;7.70;83.40
54202;DHT22;40108;53.152;5.844;2024-03-02T00:56:17;7.70;83.80
54202;DHT22;40108;53.152;5.844;2024-03-02T00:58:42;7.60;83.60
54202;DHT22;40108;53.152;5.844;2024-03-02T01:01:08;7.70;83.60
54202;DHT22;40108;53.152;5.844;2024-03-02T01:03:35;7.70;83.90
54202;DHT22;40108;53.152;5.844;2024-03-02T01:06:00;7.60;84.30
54202;DHT22;40108;53.152;5.844;2024-03-02T01:08:26;7.60;84.30
54202;DHT22;40108;53.152;5.844;2024-03-02T01:10:52;7.70;84.20
54202;DHT22;40108;53.152;5.844;2024-03-02T01:13:18;7.60;84.10
54202;DHT22;40108;53.152;5.844;2024-03-02T01:15:43;7.60;84.00
54202;DHT22;40108;53.152;5.844;2024-03-02T01:18:09;7.70;83.90
54202;DHT22;40108;53.152;5.844;2024-03-02T01:20:35;7.70;83.90
54202;DHT22;40108;53.152;5.844;2024-03-02T01:23:00;7.80;83.40
54202;DHT22;40108;53.152;5.844;2024-03-02T01:25:26;7.90;83.10
54202;DHT22;40108;53.152;5.844;2024-03-02T01:27:52;8.00;82.30
54202;DHT22;40108;53.152;5.844;2024-03-02T01:30:17;8.10;82.00
54202;DHT22;40108;53.152;5.844;2024-03-02T01:32:43;8.20;81.80
54202;DHT22;40108;53.152;5.844;2024-03-02T01:35:09;8.20;81.00
54202;DHT22;40108;53.152;5.844;2024-03-02T01:37:34;8.20;81.10
54202;DHT22;40108;53.152;5.844;2024-03-02T01:40:00;8.30;80.70
54202;DHT22;40108;53.152;5.844;2024-03-02T01:42:26;8.40;80.60
54202;DHT22;40108;53.152;5.844;2024-03-02T01:44:51;8.40;80.20
54202;DHT22;40108;53.152;5.844;2024-03-02T01:47:17;8.40;79.80
54202;DHT22;40108;53.152;5.844;2024-03-02T01:49:43;8.50;79.90
54202;DHT22;40108;53.152;5.844;2024-03-02T01:52:09;8.50;79.50
54202;DHT22;40108;53.152;5.844;2024-03-02T01:54:34;8.50;79.70
54202;DHT22;40108;53.152;5.844;2024-03-02T01:57:00;8.50;79.60
54202;DHT22;40108;53.152;5.844;2024-03-02T01:59:26;8.60;79.30
54202;DHT22;40108;53.152;5.844;2024-03-02T02:01:52;8.60;79.20
54202;DHT22;40108;53.152;5.844;2024-03-02T02:04:18;8.60;79.80
54202;DHT22;40108;53.152;5.844;2024-03-02T02:06:46;8.50;80.00
54202;DHT22;40108;53.152;5.844;2024-03-02T02:09:12;8.50;80.00
54202;DHT22;40108;53.152;5.844;2024-03-02T02:11:38;8.40;79.70
54202;DHT22;40108;53.152;5.844;2024-03-02T02:14:03;8.50;79.70
54202;DHT22;40108;53.152;5.844;2024-03-02T02:16:29;8.40;80.20
54202;DHT22;40108;53.152;5.844;2024-03-02T02:18:55;8.40;80.00
54202;DHT22;40108;53.152;5.844;2024-03-02T02:21:24;8.40;80.30
54202;DHT22;40108;53.152;5.844;2024-03-02T02:23:49;8.40;80.60
54202;DHT22;40108;53.152;5.844;2024-03-02T02:26:15;8.40;80.30
54202;DHT22;40108;53.152;5.844;2024-03-02T02:28:41;8.50;80.20
54202;DHT22;40108;53.152;5.844;2024-03-02T02:31:16;8.50;80.20
54202;DHT22;40108;53.152;5.844;2024-03-02T02:33:42;8.60;80.00
54202;DHT22;40108;53.152;5.844;2024-03-02T02:36:08;8.70;80.00
54202;DHT22;40108;53.152;5.844;2024-03-02T02:38:39;8.70;80.10
54202;DHT22;40108;53.152;5.844;2024-03-02T02:41:05;8.70;80.10
54202;DHT22;40108;53.152;5.844;2024-03-02T02:43:31;8.70;79.90
54202;DHT22;40108;53.152;5.844;2024-03-02T02:45:57;8.60;80.20
54202;DHT22;40108;53.152;5.844;2024-03-02T02:48:22;8.60;80.00
54202;DHT22;40108;53.152;5.844;2024-03-02T02:50:48;8.60;80.40
54202;DHT22;40108;53.152;5.844;2024-03-02T02:53:14;8.60;80.30
54202;DHT22;40108;53.152;5.844;2024-03-02T02:55:40;8.60;80.20
54202;DHT22;40108;53.152;5.844;2024-03-02T02:58:14;8.60;80.40
54202;DHT22;40108;53.152;5.844;2024-03-02T03:00:40;8.60;80.50
54202;DHT22;40108;53.152;5.844;2024-03-02T03:03:06;8.50;80.60
54202;DHT22;40108;53.152;5.844;2024-03-02T03:05:31;8.50;80.60
54202;DHT22;40108;53.152;5.844;2024-03-02T03:07:57;8.50;80.70
54202;DHT22;40108;53.152;5.844;2024-03-02T03:10:23;8.50;80.90
54202;DHT22;40108;53.152;5.844;2024-03-02T03:12:51;8.50;80.90
54202;DHT22;40108;53.152;5.844;2024-03-02T03:15:17;8.40;81.00
54202;DHT22;40108;53.152;5.844;2024-03-02T03:17:43;8.50;81.10
54202;DHT22;40108;53.152;5.844;2024-03-02T03:20:08;8.40;81.60
54202;DHT22;40108;53.152;5.844;2024-03-02T03:22:40;8.30;82.00
54202;DHT22;40108;53.152;5.844;2024-03-02T03:25:06;8.30;82.00
54202;DHT22;40108;53.152;5.844;2024-03-02T03:27:35;8.20;82.30
54202;DHT22;40108;53.152;5.844;2024-03-02T03:30:01;8.20;82.70
54202;DHT22;40108;53.152;5.844;2024-03-02T03:32:27;8.20;82.90
54202;DHT22;40108;53.152;5.844;2024-03-02T03:34:53;8.10;83.00
54202;DHT22;40108;53.152;5.844;2024-03-02T03:37:19;8.20;83.20
54202;DHT22;40108;53.152;5.844;2024-03-02T03:39:45;8.10;83.30
54202;DHT22;40108;53.152;5.844;2024-03-02T03:42:11;8.10;83.50
54202;DHT22;40108;53.152;5.844;2024-03-02T03:44:36;8.10;83.40
54202;DHT22;40108;53.152;5.844;2024-03-02T03:47:02;8.10;83.50
54202;DHT22;40108;53.152;5.844;2024-03-02T03:49:28;8.10;83.40
54202;DHT22;40108;53.152;5.844;2024-03-02T03:51:53;8.10;83.50
54202;DHT22;40108;53.152;5.844;2024-03-02T03:54:19;8.10;83.50
54202;DHT22;40108;53.152;5.844;2024-03-02T03:56:45;8.10;83.80
54202;DHT22;40108;53.152;5.844;2024-03-02T03:59:10;8.10;83.90
54202;DHT22;40108;53.152;5.844;2024-03-02T04:01:37;8.00;84.10
54202;DHT22;40108;53.152;5.844;2024-03-02T04:04:03;7.90;84.20
54202;DHT22;40108;53.152;5.844;2024-03-02T04:06:29;7.90;84.60
54202;DHT22;40108;53.152;5.844;2024-03-02T04:08:55;7.90;84.90
54202;DHT22;40108;53.152;5.844;2024-03-02T04:11:20;7.80;85.30
54202;DHT22;40108;53.152;5.844;2024-03-02T04:13:46;7.80;85.40
54202;DHT22;40108;53.152;5.844;2024-03-02T04:16:12;7.80;85.50
54202;DHT22;40108;53.152;5.844;2024-03-02T04:18:37;7.70;85.70
54202;DHT22;40108;53.152;5.844;2024-03-02T04:21:05;7.70;85.60
54202;DHT22;40108;53.152;5.844;2024-03-02T04:23:30;7.60;85.80
54202;DHT22;40108;53.152;5.844;2024-03-02T04:25:56;7.60;86.00
54202;DHT22;40108;53.152;5.844;2024-03-02T04:28:22;7.50;86.10
54202;DHT22;40108;53.152;5.844;2024-03-02T04:30:48;7.50;86.30
54202;DHT22;40108;53.152;5.844;2024-03-02T04:33:13;7.50;86.50
54202;DHT22;40108;53.152;5.844;2024-03-02T04:35:39;7.40;86.80
54202;DHT22;40108;53.152;5.844;2024-03-02T04:38:05;7.30;87.20
54202;DHT22;40108;53.152;5.844;2024-03-02T04:40:30;7.30;87.30
54202;DHT22;40108;53.152;5.844;2024-03-02T04:42:57;7.40;87.30
54202;DHT22;40108;53.152;5.844;2024-03-02T04:45:24;7.30;87.40
54202;DHT22;40108;53.152;5.844;2024-03-02T04:47:50;7.30;87.60
54202;DHT22;40108;53.152;5.844;2024-03-02T04:50:15;7.20;87.50
54202;DHT22;40108;53.152;5.844;2024-03-02T04:52:41;7.20;87.60
54202;DHT22;40108;53.152;5.844;2024-03-02T04:55:07;7.20;87.60
54202;DHT22;40108;53.152;5.844;2024-03-02T04:57:45;7.20;87.80
54202;DHT22;40108;53.152;5.844;2024-03-02T05:00:12;7.20;87.60
54202;DHT22;40108;53.152;5.844;2024-03-02T05:02:38;7.10;87.40
54202;DHT22;40108;53.152;5.844;2024-03-02T05:05:04;7.10;87.20
54202;DHT22;40108;53.152;5.844;2024-03-02T05:07:29;7.00;87.40
54202;DHT22;40108;53.152;5.844;2024-03-02T05:09:55;7.00;87.50
54202;DHT22;40108;53.152;5.844;2024-03-02T05:12:21;6.90;87.80
54202;DHT22;40108;53.152;5.844;2024-03-02T05:15:05;6.90;87.90
54202;DHT22;40108;53.152;5.844;2024-03-02T05:17:34;6.90;88.30
54202;DHT22;40108;53.152;5.844;2024-03-02T05:20:00;6.80;88.70
54202;DHT22;40108;53.152;5.844;2024-03-02T05:22:25;6.80;88.80
54202;DHT22;40108;53.152;5.844;2024-03-02T05:24:51;6.70;88.90
54202;DHT22;40108;53.152;5.844;2024-03-02T05:27:17;6.70;88.90
54202;DHT22;40108;53.152;5.844;2024-03-02T05:29:42;6.70;89.00
54202;DHT22;40108;53.152;5.844;2024-03-02T05:32:08;6.60;88.90
54202;DHT22;40108;53.152;5.844;2024-03-02T05:34:34;6.60;88.80
54202;DHT22;40108;53.152;5.844;2024-03-02T05:37:01;6.50;88.80
54202;DHT22;40108;53.152;5.844;2024-03-02T05:39:27;6.50;88.80
54202;DHT22;40108;53.152;5.844;2024-03-02T05:41:52;6.50;88.80
54202;DHT22;40108;53.152;5.844;2024-03-02T05:44:18;6.40;88.80
54202;DHT22;40108;53.152;5.844;2024-03-02T05:46:45;6.30;88.80
54202;DHT22;40108;53.152;5.844;2024-03-02T05:49:11;6.30;88.80
54202;DHT22;40108;53.152;5.844;2024-03-02T05:51:36;6.30;88.80
54202;DHT22;40108;53.152;5.844;2024-03-02T05:54:02;6.20;88.90
54202;DHT22;40108;53.152;5.844;2024-03-02T05:56:28;6.20;89.20
54202;DHT22;40108;53.152;5.844;2024-03-02T05:58:54;6.10;89.30
54202;DHT22;40108;53.152;5.844;2024-03-02T06:01:38;6.00;89.50
54202;DHT22;40108;53.152;5.844;2024-03-02T06:04:04;5.90;89.70
54202;DHT22;40108;53.152;5.844;2024-03-02T06:06:29;5.80;89.90
54202;DHT22;40108;53.152;5.844;2024-03-02T06:08:55;5.80;90.00
54202;DHT22;40108;53.152;5.844;2024-03-02T06:11:21;5.70;90.10
54202;DHT22;40108;53.152;5.844;2024-03-02T06:13:47;5.70;90.20
54202;DHT22;40108;53.152;5.844;2024-03-02T06:16:13;5.70;90.40
54202;DHT22;40108;53.152;5.844;2024-03-02T06:18:39;5.70;90.40
54202;DHT22;40108;53.152;5.844;2024-03-02T06:21:04;5.70;90.60
54202;DHT22;40108;53.152;5.844;2024-03-02T06:23:30;5.70;90.70
54202;DHT22;40108;53.152;5.844;2024-03-02T06:25:56;5.70;90.80
54202;DHT22;40108;53.152;5.844;2024-03-02T06:28:22;5.70;91.00
54202;DHT22;40108;53.152;5.844;2024-03-02T06:30:47;5.70;91.10
54202;DHT22;40108;53.152;5.844;2024-03-02T06:33:13;5.70;91.20
54202;DHT22;40108;53.152;5.844;2024-03-02T06:35:39;5.70;91.20
54202;DHT22;40108;53.152;5.844;2024-03-02T06:38:04;5.70;91.40
54202;DHT22;40108;53.152;5.844;2024-03-02T06:40:30;5.70;91.50
54202;DHT22;40108;53.152;5.844;2024-03-02T06:42:56;5.70;91.50
54202;DHT22;40108;53.152;5.844;2024-03-02T06:45:21;5.70;91.70
54202;DHT22;40108;53.152;5.844;2024-03-02T06:47:47;5.60;91.80
54202;DHT22;40108;53.152;5.844;2024-03-02T06:50:13;5.60;91.90
54202;DHT22;40108;53.152;5.844;2024-03-02T06:52:38;5.60;92.00
54202;DHT22;40108;53.152;5.844;2024-03-02T06:55:04;5.50;92.10
54202;DHT22;40108;53.152;5.844;2024-03-02T06:57:30;5.50;92.20
54202;DHT22;40108;53.152;5.844;2024-03-02T06:59:56;5.40;92.30
54202;DHT22;40108;53.152;5.844;2024-03-02T07:02:24;5.40;92.40
54202;DHT22;40108;53.152;5.844;2024-03-02T07:04:53;5.40;92.50
54202;DHT22;40108;53.152;5.844;2024-03-02T07:07:18;5.40;92.50
54202;DHT22;40108;53.152;5.844;2024-03-02T07:09:44;5.50;92.60
54202;DHT22;40108;53.152;5.844;2024-03-02T07:12:10;5.40;92.60
54202;DHT22;40108;53.152;5.844;2024-03-02T07:14:35;5.50;92.70
54202;DHT22;40108;53.152;5.844;2024-03-02T07:17:37;5.50;92.70
54202;DHT22;40108;53.152;5.844;2024-03-02T07:20:03;5.60;92.70
54202;DHT22;40108;53.152;5.844;2024-03-02T07:22:32;5.50;92.70
54202;DHT22;40108;53.152;5.844;2024-03-02T07:24:58;5.50;92.70
54202;DHT22;40108;53.152;5.844;2024-03-02T07:27:24;5.60;92.80
54202;DHT22;40108;53.152;5.844;2024-03-02T07:29:50;5.60;92.70
54202;DHT22;40108;53.152;5.844;2024-03-02T07:32:15;5.60;92.80
54202;DHT22;40108;53.152;5.844;2024-03-02T07:34:41;5.70;92.80
54202;DHT22;40108;53.152;5.844;2024-03-02T07:37:07;5.70;92.70
54202;DHT22;40108;53.152;5.844;2024-03-02T07:39:32;5.80;92.60
54202;DHT22;40108;53.152;5.844;2024-03-02T07:41:59;5.90;92.50
54202;DHT22;40108;53.152;5.844;2024-03-02T07:44:25;6.00;92.40
54202;DHT22;40108;53.152;5.844;2024-03-02T07:46:50;6.10;92.30
54202;DHT22;40108;53.152;5.844;2024-03-02T07:49:16;6.20;92.20
54202;DHT22;40108;53.152;5.844;2024-03-02T07:51:42;6.20;92.10
54202;DHT22;40108;53.152;5.844;2024-03-02T07:54:08;6.30;92.00
54202;DHT22;40108;53.152;5.844;2024-03-02T07:56:34;6.30;91.80
54202;DHT22;40108;53.152;5.844;2024-03-02T07:59:01;6.40;91.60
54202;DHT22;40108;53.152;5.844;2024-03-02T08:01:31;6.50;91.30
54202;DHT22;40108;53.152;5.844;2024-03-02T08:03:57;6.50;91.00
54202;DHT22;40108;53.152;5.844;2024-03-02T08:06:27;6.70;90.90
54202;DHT22;40108;53.152;5.844;2024-03-02T08:08:54;6.80;90.20
54202;DHT22;40108;53.152;5.844;2024-03-02T08:11:20;7.10;89.20
54202;DHT22;40108;53.152;5.844;2024-03-02T08:13:46;7.20;88.70
54202;DHT22;40108;53.152;5.844;2024-03-02T08:16:12;7.40;88.10
54202;DHT22;40108;53.152;5.844;2024-03-02T08:18:38;7.50;86.40
54202;DHT22;40108;53.152;5.844;2024-03-02T08:21:04;7.60;85.70
54202;DHT22;40108;53.152;5.844;2024-03-02T08:23:30;7.70;84.80
54202;DHT22;40108;53.152;5.844;2024-03-02T08:25:56;7.90;84.90
54202;DHT22;40108;53.152;5.844;2024-03-02T08:28:22;8.00;83.90
54202;DHT22;40108;53.152;5.844;2024-03-02T08:30:48;8.10;83.30
54202;DHT22;40108;53.152;5.844;2024-03-02T08:33:14;8.20;83.00
54202;DHT22;40108;53.152;5.844;2024-03-02T08:35:39;8.30;82.00
54202;DHT22;40108;53.152;5.844;2024-03-02T08:38:05;8.40;82.20
54202;DHT22;40108;53.152;5.844;2024-03-02T08:40:31;8.40;81.70
54202;DHT22;40108;53.152;5.844;2024-03-02T08:42:57;8.60;82.10
54202;DHT22;40108;53.152;5.844;2024-03-02T08:45:22;8.50;81.30
54202;DHT22;40108;53.152;5.844;2024-03-02T08:47:48;8.40;80.60
54202;DHT22;40108;53.152;5.844;2024-03-02T08:50:14;8.40;81.00
54202;DHT22;40108;53.152;5.844;2024-03-02T08:52:39;8.40;81.50
54202;DHT22;40108;53.152;5.844;2024-03-02T08:55:06;8.40;81.60
54202;DHT22;40108;53.152;5.844;2024-03-02T08:57:33;8.50;81.40
54202;DHT22;40108;53.152;5.844;2024-03-02T08:59:59;8.60;81.50
54202;DHT22;40108;53.152;5.844;2024-03-02T09:02:25;8.70;82.00
54202;DHT22;40108;53.152;5.844;2024-03-02T09:04:51;8.70;82.10
54202;DHT22;40108;53.152;5.844;2024-03-02T09:07:17;8.80;81.00
54202;DHT22;40108;53.152;5.844;2024-03-02T09:09:42;8.90;80.90
54202;DHT22;40108;53.152;5.844;2024-03-02T09:12:08;9.00;80.60
54202;DHT22;40108;53.152;5.844;2024-03-02T09:14:35;9.10;80.40
54202;DHT22;40108;53.152;5.844;2024-03-02T09:17:02;9.20;80.20
54202;DHT22;40108;53.152;5.844;2024-03-02T09:19:29;9.20;79.30
54202;DHT22;40108;53.152;5.844;2024-03-02T09:21:55;9.10;78.30
54202;DHT22;40108;53.152;5.844;2024-03-02T09:24:21;9.00;78.40
54202;DHT22;40108;53.152;5.844;2024-03-02T09:26:47;9.00;78.70
54202;DHT22;40108;53.152;5.844;2024-03-02T09:29:13;9.00;78.90
54202;DHT22;40108;53.152;5.844;2024-03-02T09:31:40;9.00;79.80
54202;DHT22;40108;53.152;5.844;2024-03-02T09:34:07;9.00;79.40
54202;DHT22;40108;53.152;5.844;2024-03-02T09:36:33;8.90;79.70
54202;DHT22;40108;53.152;5.844;2024-03-02T09:38:58;9.00;79.20
54202;DHT22;40108;53.152;5.844;2024-03-02T09:41:24;9.00;79.60
54202;DHT22;40108;53.152;5.844;2024-03-02T09:43:50;9.20;78.60
54202;DHT22;40108;53.152;5.844;2024-03-02T09:46:16;9.50;77.60
54202;DHT22;40108;53.152;5.844;2024-03-02T09:48:44;9.70;77.40
54202;DHT22;40108;53.152;5.844;2024-03-02T09:51:10;9.90;76.10
54202;DHT22;40108;53.152;5.844;2024-03-02T09:53:37;10.00;74.80
54202;DHT22;40108;53.152;5.844;2024-03-02T09:56:03;10.10;74.20
54202;DHT22;40108;53.152;5.844;2024-03-02T09:58:30;10.00;73.60
54202;DHT22;40108;53.152;5.844;2024-03-02T10:00:56;10.10;74.20
54202;DHT22;40108;53.152;5.844;2024-03-02T10:03:25;10.20;73.90
54202;DHT22;40108;53.152;5.844;2024-03-02T10:05:51;10.20;74.30
54202;DHT22;40108;53.152;5.844;2024-03-02T10:08:17;10.20;74.60
54202;DHT22;40108;53.152;5.844;2024-03-02T10:10:42;10.20;73.30
54202;DHT22;40108;53.152;5.844;2024-03-02T10:13:13;10.20;72.70
54202;DHT22;40108;53.152;5.844;2024-03-02T10:15:40;10.20;73.10
54202;DHT22;40108;53.152;5.844;2024-03-02T10:18:10;10.40;72.00
54202;DHT22;40108;53.152;5.844;2024-03-02T10:20:42;10.20;72.20
54202;DHT22;40108;53.152;5.844;2024-03-02T10:23:15;10.00;73.60
54202;DHT22;40108;53.152;5.844;2024-03-02T10:25:42;9.90;74.60
54202;DHT22;40108;53.152;5.844;2024-03-02T10:28:08;10.20;74.10
54202;DHT22;40108;53.152;5.844;2024-03-02T10:30:35;10.40;73.70
54202;DHT22;40108;53.152;5.844;2024-03-02T10:33:05;10.60;71.30
54202;DHT22;40108;53.152;5.844;2024-03-02T10:35:32;10.60;71.80
54202;DHT22;40108;53.152;5.844;2024-03-02T10:38:04;10.80;71.30
54202;DHT22;40108;53.152;5.844;2024-03-02T10:40:30;10.80;70.90
54202;DHT22;40108;53.152;5.844;2024-03-02T10:42:57;10.90;71.40
54202;DHT22;40108;53.152;5.844;2024-03-02T10:45:24;11.10;71.40
54202;DHT22;40108;53.152;5.844;2024-03-02T10:47:51;11.20;69.70
54202;DHT22;40108;53.152;5.844;2024-03-02T10:50:17;11.20;68.90
54202;DHT22;40108;53.152;5.844;2024-03-02T10:52:43;11.20;68.60
54202;DHT22;40108;53.152;5.844;2024-03-02T10:55:11;11.20;67.90
54202;DHT22;40108;53.152;5.844;2024-03-02T10:57:53;11.20;68.20
54202;DHT22;40108;53.152;5.844;2024-03-02T11:00:20;11.30;68.40
54202;DHT22;40108;53.152;5.844;2024-03-02T11:03:02;11.40;69.80
54202;DHT22;40108;53.152;5.844;2024-03-02T11:05:36;11.60;70.40
54202;DHT22;40108;53.152;5.844;2024-03-02T11:08:08;11.60;69.50
54202;DHT22;40108;53.152;5.844;2024-03-02T11:10:57;11.70;69.20
54202;DHT22;40108;53.152;5.844;2024-03-02T11:13:31;11.80;69.50
54202;DHT22;40108;53.152;5.844;2024-03-02T11:16:09;12.00;67.60
54202;DHT22;40108;53.152;5.844;2024-03-02T11:18:36;12.20;68.30
54202;DHT22;40108;53.152;5.844;2024-03-02T11:21:03;12.40;67.20
54202;DHT22;40108;53.152;5.844;2024-03-02T11:23:32;12.50;64.70
54202;DHT22;40108;53.152;5.844;2024-03-02T11:26:21;12.40;63.90
54202;DHT22;40108;53.152;5.844;2024-03-02T11:28:48;12.40;64.70
54202;DHT22;40108;53.152;5.844;2024-03-02T11:31:13;12.50;64.80
54202;DHT22;40108;53.152;5.844;2024-03-02T11:33:39;12.70;65.10
54202;DHT22;40108;53.152;5.844;2024-03-02T11:36:08;12.80;64.20
54202;DHT22;40108;53.152;5.844;2024-03-02T11:38:35;13.00;64.60
54202;DHT22;40108;53.152;5.844;2024-03-02T11:41:02;13.10;65.10
54202;DHT22;40108;53.152;5.844;2024-03-02T11:43:29;13.30;63.30
54202;DHT22;40108;53.152;5.844;2024-03-02T11:46:04;13.40;61.60
54202;DHT22;40108;53.152;5.844;2024-03-02T11:48:32;13.40;61.10
54202;DHT22;40108;53.152;5.844;2024-03-02T11:51:00;13.30;57.90
54202;DHT22;40108;53.152;5.844;2024-03-02T11:53:27;13.20;58.70
54202;DHT22;40108;53.152;5.844;2024-03-02T11:55:58;13.10;58.40
54202;DHT22;40108;53.152;5.844;2024-03-02T11:58:24;13.10;59.40
54202;DHT22;40108;53.152;5.844;2024-03-02T12:00:52;12.90;59.50
54202;DHT22;40108;53.152;5.844;2024-03-02T12:03:18;12.50;61.50
54202;DHT22;40108;53.152;5.844;2024-03-02T12:05:49;12.40;62.70
54202;DHT22;40108;53.152;5.844;2024-03-02T12:08:15;12.20;62.10
54202;DHT22;40108;53.152;5.844;2024-03-02T12:10:41;12.00;63.20
54202;DHT22;40108;53.152;5.844;2024-03-02T12:13:07;12.10;63.90
54202;DHT22;40108;53.152;5.844;2024-03-02T12:15:37;12.40;61.90
54202;DHT22;40108;53.152;5.844;2024-03-02T12:18:04;12.50;62.00
54202;DHT22;40108;53.152;5.844;2024-03-02T12:20:31;12.60;60.70
54202;DHT22;40108;53.152;5.844;2024-03-02T12:23:02;12.80;60.40
54202;DHT22;40108;53.152;5.844;2024-03-02T12:25:30;12.90;59.60
54202;DHT22;40108;53.152;5.844;2024-03-02T12:27:58;13.00;60.20
54202;DHT22;40108;53.152;5.844;2024-03-02T12:30:27;13.10;59.50
54202;DHT22;40108;53.152;5.844;2024-03-02T12:32:54;13.10;59.70
54202;DHT22;40108;53.152;5.844;2024-03-02T12:35:20;12.90;58.30
54202;DHT22;40108;53.152;5.844;2024-03-02T12:37:50;12.90;59.50
54202;DHT22;40108;53.152;5.844;2024-03-02T12:40:17;13.00;59.70
54202;DHT22;40108;53.152;5.844;2024-03-02T12:42:44;12.90;58.30
54202;DHT22;40108;53.152;5.844;2024-03-02T12:45:11;13.00;59.70
54202;DHT22;40108;53.152;5.844;2024-03-02T12:47:38;13.00;57.60
54202;DHT22;40108;53.152;5.844;2024-03-02T12:50:04;13.10;56.60
54202;DHT22;40108;53.152;5.844;2024-03-02T12:52:30;13.10;57.70
54202;DHT22;40108;53.152;5.844;2024-03-02T12:54:59;13.10;59.00
54202;DHT22;40108;53.152;5.844;2024-03-02T12:57:29;12.90;59.40
54202;DHT22;40108;53.152;5.844;2024-03-02T13:00:05;12.70;60.70
54202;DHT22;40108;53.152;5.844;2024-03-02T13:02:45;12.60;62.40
54202;DHT22;40108;53.152;5.844;2024-03-02T13:05:11;12.50;60.90
54202;DHT22;40108;53.152;5.844;2024-03-02T13:07:37;12.30;61.30
54202;DHT22;40108;53.152;5.844;2024-03-02T13:10:04;12.30;61.80
54202;DHT22;40108;53.152;5.844;2024-03-02T13:12:31;12.40;62.30
54202;DHT22;40108;53.152;5.844;2024-03-02T13:14:58;12.40;60.20
54202;DHT22;40108;53.152;5.844;2024-03-02T13:17:24;12.40;58.60
54202;DHT22;40108;53.152;5.844;2024-03-02T13:19:57;12.10;58.80
54202;DHT22;40108;53.152;5.844;2024-03-02T13:22:23;12.10;59.30
54202;DHT22;40108;53.152;5.844;2024-03-02T13:24:50;12.00;59.50
54202;DHT22;40108;53.152;5.844;2024-03-02T13:27:16;11.90;59.70
54202;DHT22;40108;53.152;5.844;2024-03-02T13:29:47;11.90;58.90
54202;DHT22;40108;53.152;5.844;2024-03-02T13:32:16;11.90;59.60
54202;DHT22;40108;53.152;5.844;2024-03-02T13:34:43;12.00;59.90
54202;DHT22;40108;53.152;5.844;2024-03-02T13:37:09;11.90;60.60
54202;DHT22;40108;53.152;5.844;2024-03-02T13:39:35;11.90;61.30
54202;DHT22;40108;53.152;5.844;2024-03-02T13:42:10;11.90;60.00
54202;DHT22;40108;53.152;5.844;2024-03-02T13:44:36;12.00;60.80
54202;DHT22;40108;53.152;5.844;2024-03-02T13:47:03;12.00;60.30
54202;DHT22;40108;53.152;5.844;2024-03-02T13:49:30;12.10;61.10
54202;DHT22;40108;53.152;5.844;2024-03-02T13:52:00;12.10;60.20
54202;DHT22;40108;53.152;5.844;2024-03-02T13:54:29;12.00;60.70
54202;DHT22;40108;53.152;5.844;2024-03-02T13:56:56;12.00;60.70
54202;DHT22;40108;53.152;5.844;2024-03-02T13:59:24;12.10;60.80
54202;DHT22;40108;53.152;5.844;2024-03-02T14:01:49;12.10;60.70
54202;DHT22;40108;53.152;5.844;2024-03-02T14:04:15;12.10;60.20
54202;DHT22;40108;53.152;5.844;2024-03-02T14:06:42;12.20;60.60
54202;DHT22;40108;53.152;5.844;2024-03-02T14:09:09;12.30;60.70
54202;DHT22;40108;53.152;5.844;2024-03-02T14:11:34;12.30;59.90
54202;DHT22;40108;53.152;5.844;2024-03-02T14:14:01;12.40;61.40
54202;DHT22;40108;53.152;5.844;2024-03-02T14:16:28;12.40;61.60
54202;DHT22;40108;53.152;5.844;2024-03-02T14:18:53;12.50;61.40
54202;DHT22;40108;53.152;5.844;2024-03-02T14:21:19;12.50;60.70
54202;DHT22;40108;53.152;5.844;2024-03-02T14:23:45;12.40;58.50
54202;DHT22;40108;53.152;5.844;2024-03-02T14:26:10;12.40;59.10
54202;DHT22;40108;53.152;5.844;2024-03-02T14:28:36;12.20;60.00
54202;DHT22;40108;53.152;5.844;2024-03-02T14:31:02;12.20;60.30
54202;DHT22;40108;53.152;5.844;2024-03-02T14:33:28;12.30;61.10
54202;DHT22;40108;53.152;5.844;2024-03-02T14:35:54;12.30;60.60
54202;DHT22;40108;53.152;5.844;2024-03-02T14:38:20;12.20;62.10
54202;DHT22;40108;53.152;5.844;2024-03-02T14:40:45;12.30;62.30
54202;DHT22;40108;53.152;5.844;2024-03-02T14:43:11;12.30;62.80
54202;DHT22;40108;53.152;5.844;2024-03-02T14:45:37;12.40;63.70
54202;DHT22;40108;53.152;5.844;2024-03-02T14:48:03;12.40;62.50
54202;DHT22;40108;53.152;5.844;2024-03-02T14:50:29;12.30;61.80
54202;DHT22;40108;53.152;5.844;2024-03-02T14:52:55;12.20;62.80
54202;DHT22;40108;53.152;5.844;2024-03-02T14:55:23;12.10;62.30
54202;DHT22;40108;53.152;5.844;2024-03-02T14:57:49;12.10;62.30
54202;DHT22;40108;53.152;5.844;2024-03-02T15:00:15;12.00;61.80
54202;DHT22;40108;53.152;5.844;2024-03-02T15:02:41;12.00;62.90
54202;DHT22;40108;53.152;5.844;2024-03-02T15:05:07;11.90;63.10
54202;DHT22;40108;53.152;5.844;2024-03-02T15:07:33;11.90;64.00
54202;DHT22;40108;53.152;5.844;2024-03-02T15:09:59;11.90;63.60
54202;DHT22;40108;53.152;5.844;2024-03-02T15:12:24;11.80;63.30
54202;DHT22;40108;53.152;5.844;2024-03-02T15:14:50;11.70;63.50
54202;DHT22;40108;53.152;5.844;2024-03-02T15:17:16;11.70;64.20
54202;DHT22;40108;53.152;5.844;2024-03-02T15:19:46;11.70;64.70
54202;DHT22;40108;53.152;5.844;2024-03-02T15:22:12;11.70;65.10
54202;DHT22;40108;53.152;5.844;2024-03-02T15:24:38;11.60;65.60
54202;DHT22;40108;53.152;5.844;2024-03-02T15:27:05;11.60;65.90
54202;DHT22;40108;53.152;5.844;2024-03-02T15:29:31;11.70;66.00
54202;DHT22;40108;53.152;5.844;2024-03-02T15:31:57;11.70;66.60
54202;DHT22;40108;53.152;5.844;2024-03-02T15:34:23;11.60;67.00
54202;DHT22;40108;53.152;5.844;2024-03-02T15:36:50;11.60;67.10
54202;DHT22;40108;53.152;5.844;2024-03-02T15:39:16;11.60;67.40
54202;DHT22;40108;53.152;5.844;2024-03-02T15:41:44;11.60;67.50